NGTA/TRW METAR and TAF weather

Enter ICAO airport designator
Station Type Date Time Source
NGTA METAR 2019/12/14 17:00 UTC NOAA

NGTA 141700Z 05008KT 9999 FEW019 SCT040 BKN300 29/24 Q1006


Station Type Date Time Source
NGTA Decoded METAR 2019/12/14 17:00 UTC NOAA

Tarawa, Kiribati (NGTA) 01-21N 172-55E 4M
Dec 14, 2019 - 12:00 PM EST / 2019.12.14 1700 UTC
Wind: from the NE (050 degrees) at 9 MPH (8 KT):0
Visibility: greater than 7 mile(s):0
Sky conditions: mostly cloudy
Temperature: 84 F (29 C)
Dew Point: 75 F (24 C)
Relative Humidity: 74%
Pressure (altimeter): 29.71 in. Hg (1006 hPa)
ob: NGTA 141700Z 05008KT 9999 FEW019 SCT040 BKN300 29/24 Q1006
cycle: 17

Station Type Date Time Source
NGTA TAF 2019/12/14 12:40 UTC NOAA

TAF NGTA 141130Z 1412/1512 06008KT 9999 -SHRA SCT017 BKN040 PROB40
TEMPO 1412/1424 5000 TSRA BKN016 FEW017CB PROB30
TEMPO 1500/1506 5000 TSRA FEW018CB

Example: see airport list